createdAt,value
2023-01-31T00:01:12.178Z,2.22
2023-01-31T00:06:18.877Z,2.42
2023-01-31T00:11:23.455Z,2.30
2023-01-31T00:16:27.169Z,2.76
2023-01-31T00:21:32.393Z,2.57
2023-01-31T00:26:36.567Z,3.19
2023-01-31T00:31:40.117Z,3.06
2023-01-31T00:36:44.419Z,3.03
2023-01-31T00:41:47.155Z,3.03
2023-01-31T00:46:50.060Z,3.04
2023-01-31T00:51:54.276Z,3.03
2023-01-31T00:56:57.017Z,2.65
2023-01-31T01:01:59.962Z,2.99
2023-01-31T01:07:04.306Z,3.10
2023-01-31T01:12:09.330Z,3.03
2023-01-31T01:17:12.046Z,2.78
2023-01-31T01:22:16.320Z,2.51
2023-01-31T01:27:19.068Z,3.08
2023-01-31T01:32:22.076Z,2.69
2023-01-31T01:37:26.344Z,2.76
2023-01-31T01:42:34.095Z,2.67
2023-01-31T01:47:41.177Z,2.38
2023-01-31T01:52:48.682Z,2.56
2023-01-31T01:57:58.130Z,2.64
2023-01-31T02:03:06.294Z,2.72
2023-01-31T02:08:11.237Z,2.54
2023-01-31T02:13:14.701Z,2.29
2023-01-31T02:18:21.419Z,2.97
2023-01-31T02:23:52.397Z,2.64
2023-01-31T02:29:27.961Z,2.34
2023-01-31T02:34:37.331Z,2.69
2023-01-31T02:39:50.735Z,2.31
2023-01-31T02:45:00.234Z,2.58
2023-01-31T02:50:13.854Z,2.49
2023-01-31T02:55:42.006Z,2.22
2023-01-31T03:00:47.250Z,2.01
2023-01-31T03:06:33.556Z,1.89
2023-01-31T03:11:48.021Z,1.91
2023-01-31T03:17:13.661Z,1.75
2023-01-31T03:29:07.634Z,1.59
2023-01-31T03:34:16.214Z,1.86
2023-01-31T03:39:33.750Z,1.91
2023-01-31T03:44:45.058Z,1.85
2023-01-31T03:49:49.878Z,1.59
2023-01-31T03:54:58.719Z,1.34
2023-01-31T04:00:06.450Z,1.60
2023-01-31T04:05:21.970Z,1.13
2023-01-31T04:10:29.326Z,1.61
2023-01-31T04:15:33.415Z,1.61
2023-01-31T04:20:36.058Z,1.56
2023-01-31T04:25:38.758Z,1.67
2023-01-31T04:30:42.757Z,1.57
2023-01-31T04:35:45.419Z,1.63
2023-01-31T04:40:48.646Z,1.38
2023-01-31T04:45:52.646Z,1.61
2023-01-31T04:50:55.282Z,1.65
2023-01-31T04:55:57.963Z,1.65
2023-01-31T05:01:02.107Z,1.61
2023-01-31T05:06:05.709Z,1.72
2023-01-31T05:11:09.491Z,2.09
2023-01-31T05:16:13.658Z,1.89
2023-01-31T05:21:16.331Z,1.99
2023-01-31T05:26:19.230Z,2.04
2023-01-31T05:31:23.370Z,2.14
2023-01-31T05:36:26.201Z,2.22
2023-01-31T05:41:28.921Z,2.42
2023-01-31T05:46:32.915Z,2.40
2023-01-31T05:51:35.572Z,2.42
2023-01-31T05:56:39.072Z,2.50
2023-01-31T06:01:43.237Z,2.39
2023-01-31T06:06:45.922Z,2.58
2023-01-31T06:11:48.558Z,2.70
2023-01-31T06:16:52.596Z,2.74
2023-01-31T06:21:55.246Z,2.75
2023-01-31T06:26:58.272Z,2.90
2023-01-31T06:32:02.277Z,3.19
2023-01-31T06:37:04.914Z,3.09
2023-01-31T06:42:07.966Z,3.20
2023-01-31T06:47:14.628Z,2.94
2023-01-31T06:52:17.385Z,3.29
2023-01-31T06:57:20.109Z,3.19
2023-01-31T07:02:24.326Z,3.13
2023-01-31T07:07:27.113Z,3.18
2023-01-31T07:12:30.273Z,3.34
2023-01-31T07:17:34.372Z,3.25
2023-01-31T07:22:37.254Z,2.78
2023-01-31T07:27:40.010Z,3.15
2023-01-31T07:32:44.139Z,3.22
2023-01-31T07:37:47.138Z,3.32
2023-01-31T07:42:50.266Z,3.10
2023-01-31T07:47:54.427Z,3.27
2023-01-31T07:52:58.891Z,2.99
2023-01-31T07:58:01.641Z,3.08
2023-01-31T08:03:23.833Z,2.89
2023-01-31T08:08:26.561Z,2.83
2023-01-31T08:13:29.744Z,3.16
2023-01-31T08:18:33.967Z,3.24
2023-01-31T08:23:38.157Z,2.78
2023-01-31T08:28:41.589Z,3.13
2023-01-31T08:33:45.732Z,3.52
2023-01-31T08:38:49.504Z,3.35
2023-01-31T08:43:56.806Z,3.44
2023-01-31T08:49:02.793Z,3.28
2023-01-31T08:54:05.781Z,3.06
2023-01-31T08:59:08.594Z,2.66
2023-01-31T09:04:12.645Z,2.39
2023-01-31T09:09:15.378Z,2.72
2023-01-31T09:14:18.188Z,2.54
2023-01-31T09:19:23.497Z,2.59
2023-01-31T09:24:26.307Z,2.20
2023-01-31T09:29:30.047Z,2.59
2023-01-31T09:34:34.342Z,2.38
2023-01-31T09:39:37.046Z,2.35
2023-01-31T09:44:43.051Z,2.28
2023-01-31T09:49:50.176Z,2.55
2023-01-31T09:54:52.874Z,2.23
2023-01-31T10:00:03.989Z,2.38
2023-01-31T10:05:23.268Z,2.35
2023-01-31T10:10:38.031Z,2.81
2023-01-31T10:15:45.375Z,2.69
2023-01-31T10:20:53.270Z,2.82
2023-01-31T10:26:00.390Z,2.69
2023-01-31T10:31:08.530Z,2.86
2023-01-31T10:36:19.820Z,2.50
2023-01-31T10:41:32.650Z,2.74
2023-01-31T10:46:35.433Z,2.87
2023-01-31T10:51:56.864Z,3.12
2023-01-31T10:57:00.256Z,2.87
2023-01-31T11:02:04.661Z,2.99
2023-01-31T11:07:10.322Z,3.21
2023-01-31T11:12:13.178Z,2.99
2023-01-31T11:17:21.689Z,2.76
2023-01-31T11:22:28.407Z,3.01
2023-01-31T11:27:38.008Z,2.99
2023-01-31T11:32:44.549Z,3.05
2023-01-31T11:37:54.314Z,2.92
2023-01-31T11:42:58.759Z,2.88
2023-01-31T11:48:11.971Z,2.84
2023-01-31T11:53:20.026Z,2.94
2023-01-31T11:58:25.900Z,2.88
2023-01-31T12:03:30.193Z,2.75
2023-01-31T12:08:36.993Z,3.04
2023-01-31T12:13:50.752Z,3.28
2023-01-31T12:19:05.541Z,3.28
2023-01-31T12:24:25.646Z,3.11
2023-01-31T12:30:01.515Z,3.08
2023-01-31T12:35:25.362Z,3.05
2023-01-31T12:40:40.696Z,3.19
2023-01-31T12:46:09.655Z,3.02
2023-01-31T12:51:26.638Z,2.95
2023-01-31T12:56:48.132Z,3.16
2023-01-31T13:01:56.224Z,2.83
2023-01-31T13:07:02.213Z,3.01
2023-01-31T13:12:10.343Z,3.09
2023-01-31T13:17:18.457Z,3.10
2023-01-31T13:22:24.990Z,2.96
2023-01-31T13:27:34.469Z,3.25
2023-01-31T13:32:42.184Z,3.19
2023-01-31T13:37:47.145Z,3.01
2023-01-31T13:42:53.324Z,3.30
2023-01-31T13:48:03.481Z,3.25
2023-01-31T13:53:13.460Z,3.17
2023-01-31T13:58:23.256Z,3.33
2023-01-31T14:03:27.050Z,3.27
2023-01-31T14:08:39.903Z,3.22
2023-01-31T14:13:45.828Z,3.36
2023-01-31T14:18:48.617Z,3.52
2023-01-31T14:23:51.478Z,3.63
2023-01-31T14:28:55.892Z,3.79
2023-01-31T14:33:58.723Z,3.52
2023-01-31T14:39:32.014Z,3.68
2023-01-31T14:44:47.208Z,3.66
2023-01-31T14:50:14.740Z,3.99
2023-01-31T14:55:35.490Z,4.00
2023-01-31T15:00:47.870Z,3.88
2023-01-31T15:05:54.650Z,4.13
2023-01-31T15:11:02.015Z,4.00
2023-01-31T15:16:08.782Z,4.12
2023-01-31T15:21:12.249Z,4.23
2023-01-31T15:26:17.948Z,4.16
2023-01-31T15:31:29.135Z,4.58
2023-01-31T15:36:34.774Z,4.29
2023-01-31T15:41:40.084Z,4.34
2023-01-31T15:46:46.430Z,4.26
2023-01-31T15:52:03.749Z,4.29
2023-01-31T15:57:12.629Z,4.46
2023-01-31T16:02:23.263Z,4.51
2023-01-31T16:07:31.225Z,4.44
2023-01-31T16:12:37.330Z,4.36
2023-01-31T16:17:41.681Z,4.53
2023-01-31T16:22:57.562Z,4.37
2023-01-31T16:28:02.379Z,4.25
2023-01-31T16:33:06.754Z,4.35
2023-01-31T16:38:21.462Z,4.42
2023-01-31T16:43:27.444Z,4.43
2023-01-31T16:48:33.569Z,4.49
2023-01-31T16:53:40.132Z,4.31
2023-01-31T16:58:49.180Z,4.44
2023-01-31T17:04:20.965Z,4.75
2023-01-31T17:09:24.092Z,4.62
2023-01-31T17:14:27.075Z,4.80
2023-01-31T17:19:31.281Z,4.44
2023-01-31T17:24:34.041Z,4.58
2023-01-31T17:29:36.863Z,4.68
2023-01-31T17:34:41.351Z,4.55
2023-01-31T17:39:44.285Z,4.59
2023-01-31T17:44:47.139Z,5.00
2023-01-31T17:49:51.322Z,4.75
2023-01-31T17:54:54.136Z,4.67
2023-01-31T17:59:56.882Z,4.81
2023-01-31T18:05:01.063Z,4.59
2023-01-31T18:10:04.985Z,4.73
2023-01-31T18:15:09.032Z,4.65
2023-01-31T18:20:13.975Z,4.77
2023-01-31T18:25:17.074Z,4.45
2023-01-31T18:30:20.195Z,5.13
2023-01-31T18:35:24.308Z,4.25
2023-01-31T18:40:27.108Z,4.44
2023-01-31T18:45:29.935Z,4.34
2023-01-31T18:50:34.139Z,4.75
2023-01-31T18:55:36.900Z,4.38
2023-01-31T19:00:39.687Z,4.35
2023-01-31T19:05:43.826Z,4.08
2023-01-31T19:10:46.631Z,4.50
2023-01-31T19:15:49.416Z,4.11
2023-01-31T19:20:53.596Z,4.65
2023-01-31T19:25:56.430Z,4.35
2023-01-31T19:31:04.849Z,4.44
2023-01-31T19:36:14.967Z,4.28
2023-01-31T19:41:20.805Z,4.10
2023-01-31T19:46:26.033Z,4.25
2023-01-31T19:51:30.385Z,4.14
2023-01-31T19:56:33.304Z,4.37
2023-01-31T20:01:36.704Z,4.10
2023-01-31T20:06:40.858Z,3.79
2023-01-31T20:11:43.627Z,4.20
2023-01-31T20:16:46.458Z,4.06
2023-01-31T20:21:50.607Z,3.97
2023-01-31T20:26:53.495Z,4.01
2023-01-31T20:31:56.381Z,3.69
2023-01-31T20:37:00.533Z,3.77
2023-01-31T20:42:03.442Z,3.90
2023-01-31T20:47:07.256Z,3.75
2023-01-31T20:52:11.378Z,4.01
2023-01-31T20:57:14.193Z,3.91
2023-01-31T21:02:17.019Z,3.79
2023-01-31T21:07:21.167Z,3.94
2023-01-31T21:12:23.905Z,3.67
2023-01-31T21:17:39.172Z,3.82
2023-01-31T21:22:44.294Z,3.58
2023-01-31T21:27:49.978Z,3.69
2023-01-31T21:32:52.766Z,3.51
2023-01-31T21:37:56.923Z,3.81
2023-01-31T21:42:59.649Z,3.60
2023-01-31T21:48:19.906Z,3.56
2023-01-31T21:53:24.047Z,3.58
2023-01-31T21:58:26.869Z,3.41
2023-01-31T22:03:29.660Z,3.30
2023-01-31T22:08:34.102Z,3.37
2023-01-31T22:13:37.170Z,3.40
2023-01-31T22:18:41.173Z,3.42
2023-01-31T22:23:49.091Z,3.40
2023-01-31T22:28:54.935Z,3.64
2023-01-31T22:33:59.936Z,3.35
2023-01-31T22:39:04.263Z,3.28
2023-01-31T22:44:07.107Z,3.34
2023-01-31T22:49:10.016Z,3.12
2023-01-31T22:54:14.683Z,3.05
2023-01-31T22:59:17.453Z,3.22
2023-01-31T23:04:20.369Z,3.01
2023-01-31T23:09:24.535Z,3.04
2023-01-31T23:14:27.476Z,3.02
2023-01-31T23:19:30.301Z,2.75
2023-01-31T23:24:35.921Z,2.78
2023-01-31T23:29:38.710Z,3.00
2023-01-31T23:34:41.483Z,3.28
2023-01-31T23:39:47.226Z,2.88
2023-01-31T23:44:50.011Z,3.22
2023-01-31T23:49:52.865Z,2.88
2023-01-31T23:54:56.950Z,3.47
2023-01-31T23:59:59.841Z,3.04
